Time;durP1;ratioP1;P1;durP2;ratioP2;P2;SDS_P1;SDS_P2;PMS_P1;PMS_P2;Temp;Humidity;BMP_temperature;BMP_pressure;BME280_temperature;BME280_humidity;BME280_pressure;Samples;Min_cycle;Max_cycle;Signal;HPM_P1;HPM_P2
2023/01/10 00:01:20;;;;;;;;;;;;;;;5.30;100.00;99729.19;4994783;28;19940;-58
2023/01/10 00:03:45;;;;;;;;;;;;;;;5.28;100.00;99742.88;4993604;28;19945;-57
2023/01/10 00:06:15;;;;;;;;;;;;;;;5.28;100.00;99737.78;5010199;28;20004;-58
2023/01/10 00:08:40;;;;;;;;;;;;;;;5.38;100.00;99740.81;5009905;28;19929;-58
2023/01/10 00:13:51;;;;;;;;;;;;;;;5.25;100.00;99750.66;5016717;28;19929;-58
2023/01/10 00:16:16;;;;;;;;;;;;;;;5.29;100.00;99754.75;5035282;28;19971;-58
2023/01/10 00:18:42;;;;;;;;;;;;;;;5.33;100.00;99759.69;5016703;28;20369;-58
2023/01/10 00:21:08;;;;;;;;;;;;;;;5.33;100.00;99767.34;5020347;28;20368;-59
2023/01/10 00:23:33;;;;;;;;;;;;;;;5.34;100.00;99758.78;5026209;28;20643;-59
2023/01/10 00:25:58;;;;;;;;;;;;;;;5.35;100.00;99759.63;5012531;28;19944;-58
2023/01/10 00:28:23;;;;;;;;;;;;;;;5.29;100.00;99760.66;5012045;28;19925;-58
2023/01/10 00:30:53;;;;;;;;;;;;;;;5.19;100.00;99768.75;5015520;28;19921;-58
2023/01/10 00:33:19;;;;;;;;;;;;;;;5.03;100.00;99783.78;5020792;28;19917;-58
2023/01/10 00:35:45;;;;;;;;;;;;;;;4.97;100.00;99784.81;5006212;28;19918;-57
2023/01/10 00:38:10;;;;;;;;;;;;;;;4.86;100.00;99800.50;5024386;28;19921;-58
2023/01/10 00:40:35;;;;;;;;;;;;;;;4.81;100.00;99813.41;5003318;28;19928;-57
2023/01/10 00:45:45;;;;;;;;;;;;;;;4.65;100.00;99814.81;5012391;28;20300;-58
2023/01/10 00:48:11;;;;;;;;;;;;;;;4.54;100.00;99822.84;5011612;28;20377;-57
2023/01/10 00:50:36;;;;;;;;;;;;;;;4.43;100.00;99828.31;5007977;28;19932;-57
2023/01/10 00:53:02;;;;;;;;;;;;;;;4.44;100.00;99840.16;5034799;28;20004;-57
2023/01/10 00:55:27;;;;;;;;;;;;;;;4.37;100.00;99848.88;4994713;28;19922;-58
2023/01/10 00:57:53;;;;;;;;;;;;;;;4.25;100.00;99846.72;4999768;28;19928;-59
2023/01/10 01:00:18;;;;;;;;;;;;;;;4.27;100.00;99856.00;4987548;28;19917;-59
2023/01/10 01:02:43;;;;;;;;;;;;;;;4.28;100.00;99859.34;5006273;28;19925;-59
2023/01/10 01:05:08;;;;;;;;;;;;;;;4.30;100.00;99873.69;4993273;28;19941;-57
2023/01/10 01:07:34;;;;;;;;;;;;;;;4.30;100.00;99895.78;4992626;28;20403;-57
2023/01/10 01:12:43;;;;;;;;;;;;;;;4.28;100.00;99918.78;4982511;28;19988;-58
2023/01/10 01:15:09;;;;;;;;;;;;;;;4.29;100.00;99924.69;4996942;28;20354;-58
2023/01/10 01:17:34;;;;;;;;;;;;;;;4.37;100.00;99935.47;5035129;28;19918;-57
2023/01/10 01:19:59;;;;;;;;;;;;;;;4.38;100.00;99936.28;5007028;28;20341;-56
2023/01/10 01:22:24;;;;;;;;;;;;;;;4.37;100.00;99938.03;5034528;28;19934;-57
2023/01/10 01:24:49;;;;;;;;;;;;;;;4.43;100.00;99948.00;5011774;28;19946;-57
2023/01/10 01:27:15;;;;;;;;;;;;;;;4.45;100.00;99950.50;5010543;28;19917;-57
2023/01/10 01:29:40;;;;;;;;;;;;;;;4.45;100.00;99953.03;5011930;28;19918;-57
2023/01/10 01:32:05;;;;;;;;;;;;;;;4.55;100.00;99956.13;5025494;28;19925;-57
2023/01/10 01:34:30;;;;;;;;;;;;;;;4.53;100.00;99962.09;4992801;28;20008;-57
2023/01/10 01:36:57;;;;;;;;;;;;;;;4.67;100.00;99966.75;4999897;28;19937;-58
2023/01/10 01:39:22;;;;;;;;;;;;;;;4.80;100.00;99971.47;5011780;28;19917;-57
2023/01/10 01:41:56;;;;;;;;;;;;;;;4.77;100.00;99974.94;5029867;28;20268;-57
2023/01/10 01:44:22;;;;;;;;;;;;;;;4.78;100.00;99991.09;4995935;28;20381;-57
2023/01/10 01:46:56;;;;;;;;;;;;;;;4.74;100.00;99992.03;4992805;28;19968;-57
2023/01/10 01:49:23;;;;;;;;;;;;;;;4.75;100.00;100002.22;5007867;28;19987;-57
2023/01/10 01:51:50;;;;;;;;;;;;;;;4.75;100.00;100004.75;5008200;28;20118;-58
2023/01/10 01:54:17;;;;;;;;;;;;;;;4.75;100.00;100006.47;4999385;28;19917;-58
2023/01/10 01:57:02;;;;;;;;;;;;;;;4.78;100.00;100017.38;4999777;28;19918;-58
2023/01/10 01:59:34;;;;;;;;;;;;;;;4.89;100.00;100014.50;4997804;28;19922;-58
2023/01/10 02:02:04;;;;;;;;;;;;;;;4.94;100.00;100022.00;5018563;28;19921;-59
2023/01/10 02:04:33;;;;;;;;;;;;;;;4.94;100.00;100014.38;4992856;28;20394;-58
2023/01/10 02:06:59;;;;;;;;;;;;;;;4.90;100.00;100021.28;4992549;28;19924;-57
2023/01/10 02:09:32;;;;;;;;;;;;;;;4.85;100.00;100020.59;5012209;28;20028;-57
2023/01/10 02:11:57;;;;;;;;;;;;;;;4.93;100.00;100021.16;5030961;28;20360;-57
2023/01/10 02:14:23;;;;;;;;;;;;;;;5.02;100.00;100022.56;5006738;28;19922;-56
2023/01/10 02:16:48;;;;;;;;;;;;;;;4.94;100.00;100019.47;5004950;28;20357;-57
2023/01/10 02:19:23;;;;;;;;;;;;;;;4.92;100.00;100016.13;5011316;28;20408;-57
2023/01/10 02:22:08;;;;;;;;;;;;;;;4.93;100.00;100012.69;5028798;28;20012;-57
2023/01/10 02:24:57;;;;;;;;;;;;;;;4.80;100.00;100019.88;5011567;28;19922;-57
2023/01/10 02:27:25;;;;;;;;;;;;;;;4.87;100.00;100031.56;4990456;28;20266;-56
2023/01/10 02:30:07;;;;;;;;;;;;;;;4.93;100.00;100031.34;5010692;28;19918;-60
2023/01/10 02:32:38;;;;;;;;;;;;;;;4.94;100.00;100027.09;4983964;28;19947;-57
2023/01/10 02:35:22;;;;;;;;;;;;;;;4.77;100.00;100030.19;5003935;28;19926;-58
2023/01/10 02:37:47;;;;;;;;;;;;;;;4.74;100.00;100026.03;4990292;28;19930;-56
2023/01/10 02:40:25;;;;;;;;;;;;;;;4.68;100.00;100031.31;4984669;28;19926;-56
2023/01/10 02:42:54;;;;;;;;;;;;;;;4.58;100.00;100035.84;5034702;28;19930;-56
2023/01/10 02:45:26;;;;;;;;;;;;;;;4.50;100.00;100031.00;5013969;28;20459;-57
2023/01/10 02:47:51;;;;;;;;;;;;;;;4.41;100.00;100040.63;5014438;28;19924;-58
2023/01/10 02:50:34;;;;;;;;;;;;;;;4.27;100.00;100046.13;5009202;28;20011;-57
2023/01/10 02:53:05;;;;;;;;;;;;;;;4.15;100.00;100052.41;5013098;28;19921;-55
2023/01/10 02:55:57;;;;;;;;;;;;;;;4.08;100.00;100061.09;4999517;28;19924;-57
2023/01/10 02:58:41;;;;;;;;;;;;;;;4.01;100.00;100055.34;4995825;28;19956;-57
2023/01/10 03:01:12;;;;;;;;;;;;;;;3.94;100.00;100064.03;5008687;28;19931;-57
2023/01/10 03:03:44;;;;;;;;;;;;;;;3.93;100.00;100065.75;5026398;28;19927;-58
2023/01/10 03:06:09;;;;;;;;;;;;;;;3.99;100.00;100080.81;5013974;28;20366;-58
2023/01/10 03:08:40;;;;;;;;;;;;;;;4.03;100.00;100082.44;5014484;28;20325;-58
2023/01/10 03:11:07;;;;;;;;;;;;;;;4.00;100.00;100085.03;5015263;28;19932;-58
2023/01/10 03:13:54;;;;;;;;;;;;;;;3.97;100.00;100094.47;5020597;28;20012;-57
2023/01/10 03:16:22;;;;;;;;;;;;;;;3.91;100.00;100098.03;4985584;28;19957;-57
2023/01/10 03:18:50;;;;;;;;;;;;;;;3.93;100.00;100114.13;4994118;28;19918;-57
2023/01/10 03:21:17;;;;;;;;;;;;;;;3.94;100.00;100114.94;5004539;28;20430;-57
2023/01/10 03:23:44;;;;;;;;;;;;;;;3.94;100.00;100115.75;5005519;28;19921;-59
2023/01/10 03:26:10;;;;;;;;;;;;;;;4.07;100.00;100123.06;5013876;28;20338;-57
2023/01/10 03:28:50;;;;;;;;;;;;;;;4.22;100.00;100134.53;5045598;28;20428;-57
2023/01/10 03:31:19;;;;;;;;;;;;;;;4.24;100.00;100138.69;5015046;28;19927;-57
2023/01/10 03:33:44;;;;;;;;;;;;;;;4.20;100.00;100148.16;5025840;28;19917;-58
2023/01/10 03:36:17;;;;;;;;;;;;;;;4.31;100.00;100145.31;5004438;28;19933;-57
2023/01/10 03:38:50;;;;;;;;;;;;;;;4.36;100.00;100155.38;5012977;28;19917;-57
2023/01/10 03:41:23;;;;;;;;;;;;;;;4.36;100.00;100161.28;5022275;28;19979;-58
2023/01/10 03:46:50;;;;;;;;;;;;;;;4.30;100.00;100179.28;4991729;28;19925;-57
2023/01/10 03:49:17;;;;;;;;;;;;;;;4.31;100.00;100178.41;5011888;28;19922;-56
2023/01/10 03:51:43;;;;;;;;;;;;;;;4.31;100.00;100187.78;5029714;28;20384;-57
2023/01/10 03:54:08;;;;;;;;;;;;;;;4.38;100.00;100190.97;5011938;28;19976;-58
2023/01/10 03:56:48;;;;;;;;;;;;;;;4.55;100.00;100193.88;4994342;28;19918;-58
2023/01/10 03:59:13;;;;;;;;;;;;;;;4.58;100.00;100198.09;4996729;28;19921;-58
2023/01/10 04:01:38;;;;;;;;;;;;;;;4.54;100.00;100204.97;5018856;28;20020;-58
2023/01/10 04:04:04;;;;;;;;;;;;;;;4.54;100.00;100207.53;5018269;28;20333;-58
2023/01/10 04:06:29;;;;;;;;;;;;;;;4.61;100.00;100213.28;5012222;28;19924;-58
2023/01/10 04:08:54;;;;;;;;;;;;;;;4.58;100.00;100214.19;5012197;28;19921;-57
2023/01/10 04:11:19;;;;;;;;;;;;;;;4.58;100.00;100215.91;5023445;28;19948;-57
2023/01/10 04:13:44;;;;;;;;;;;;;;;4.60;100.00;100216.69;5021701;28;20308;-57
2023/01/10 04:16:10;;;;;;;;;;;;;;;4.59;100.00;100227.75;5011267;28;20003;-57
2023/01/10 04:18:35;;;;;;;;;;;;;;;4.59;100.00;100232.84;5023540;28;19921;-58
2023/01/10 04:21:01;;;;;;;;;;;;;;;4.66;100.00;100235.22;5016766;28;19920;-57
2023/01/10 04:23:26;;;;;;;;;;;;;;;4.59;100.00;100235.41;5026324;28;19948;-57
2023/01/10 04:25:51;;;;;;;;;;;;;;;4.66;100.00;100229.25;5011369;28;19925;-58
2023/01/10 04:28:16;;;;;;;;;;;;;;;4.69;100.00;100236.84;5009569;28;19949;-58
2023/01/10 04:30:42;;;;;;;;;;;;;;;4.62;100.00;100235.34;5012136;28;19925;-57
2023/01/10 04:33:09;;;;;;;;;;;;;;;4.60;100.00;100231.97;5018388;28;19918;-57
2023/01/10 04:35:34;;;;;;;;;;;;;;;4.49;100.00;100235.66;5005875;28;19922;-57
2023/01/10 04:38:01;;;;;;;;;;;;;;;4.45;100.00;100239.19;5007151;28;20032;-57
2023/01/10 04:40:27;;;;;;;;;;;;;;;4.38;100.00;100247.84;5007713;28;19927;-57
2023/01/10 04:42:52;;;;;;;;;;;;;;;4.26;100.00;100254.09;5034014;28;20008;-57
2023/01/10 04:45:19;;;;;;;;;;;;;;;4.27;100.00;100257.50;5001583;28;19921;-57
2023/01/10 04:47:48;;;;;;;;;;;;;;;4.24;100.00;100260.09;5006916;28;19973;-58
2023/01/10 04:50:13;;;;;;;;;;;;;;;4.36;100.00;100275.91;5002260;28;19931;-57
2023/01/10 04:52:39;;;;;;;;;;;;;;;4.43;100.00;100273.19;5021854;28;20327;-57
2023/01/10 04:55:05;;;;;;;;;;;;;;;4.41;100.00;100274.97;5010989;28;19922;-58
2023/01/10 04:57:30;;;;;;;;;;;;;;;4.48;100.00;100281.56;5003537;28;20020;-57
2023/01/10 04:59:55;;;;;;;;;;;;;;;4.48;100.00;100273.94;5002565;28;20312;-58
2023/01/10 05:02:20;;;;;;;;;;;;;;;4.46;100.00;100279.03;5033937;28;20323;-58
2023/01/10 05:04:46;;;;;;;;;;;;;;;4.55;100.00;100284.78;5011647;28;19921;-57
2023/01/10 05:07:11;;;;;;;;;;;;;;;4.55;100.00;100282.22;5011413;28;19987;-57
2023/01/10 05:09:36;;;;;;;;;;;;;;;4.58;100.00;100287.25;5012818;28;19917;-58
2023/01/10 05:12:01;;;;;;;;;;;;;;;4.62;100.00;100289.66;5032532;28;19928;-57
2023/01/10 05:14:26;;;;;;;;;;;;;;;4.58;100.00;100295.72;5005693;28;19925;-57
2023/01/10 05:16:52;;;;;;;;;;;;;;;4.60;100.00;100298.22;5007835;28;20341;-56
2023/01/10 05:19:17;;;;;;;;;;;;;;;4.57;100.00;100295.78;5012393;28;19918;-57
2023/01/10 05:21:42;;;;;;;;;;;;;;;4.65;100.00;100306.56;5028792;28;19968;-56
2023/01/10 05:24:08;;;;;;;;;;;;;;;4.63;100.00;100298.97;5017313;28;19917;-56
2023/01/10 05:26:33;;;;;;;;;;;;;;;4.56;100.00;100294.09;5009098;28;19917;-56
2023/01/10 05:28:58;;;;;;;;;;;;;;;4.56;100.00;100311.94;4993012;28;20286;-57
2023/01/10 05:31:23;;;;;;;;;;;;;;;4.53;100.00;100300.94;5004422;28;19927;-57
2023/01/10 05:33:50;;;;;;;;;;;;;;;4.40;100.00;100294.47;5002759;28;19922;-57
2023/01/10 05:36:16;;;;;;;;;;;;;;;4.49;100.00;100309.53;4992175;28;20382;-58
2023/01/10 05:38:41;;;;;;;;;;;;;;;4.52;100.00;100313.72;5001820;28;20297;-57
2023/01/10 05:41:06;;;;;;;;;;;;;;;4.39;100.00;100307.25;5016552;28;20391;-58
2023/01/10 05:43:32;;;;;;;;;;;;;;;4.28;100.00;100316.03;5007605;28;19922;-57
2023/01/10 05:45:57;;;;;;;;;;;;;;;4.17;100.00;100321.38;4990714;28;20008;-57
2023/01/10 05:48:22;;;;;;;;;;;;;;;4.14;100.00;100325.69;4992794;28;19918;-58
2023/01/10 05:50:48;;;;;;;;;;;;;;;4.08;100.00;100330.94;4995225;28;19921;-57
2023/01/10 05:53:13;;;;;;;;;;;;;;;4.01;100.00;100330.25;5001817;28;19918;-57
2023/01/10 05:55:38;;;;;;;;;;;;;;;3.92;100.00;100341.50;4993747;28;19918;-57
2023/01/10 05:58:04;;;;;;;;;;;;;;;3.84;100.00;100335.72;4992724;28;20369;-57
2023/01/10 06:00:29;;;;;;;;;;;;;;;3.88;100.00;100345.81;4989172;28;20011;-57
2023/01/10 06:02:55;;;;;;;;;;;;;;;3.81;100.00;100358.72;5016936;28;20381;-57
2023/01/10 06:05:20;;;;;;;;;;;;;;;3.74;100.00;100364.81;5005713;28;20349;-57
2023/01/10 06:07:45;;;;;;;;;;;;;;;3.77;100.00;100369.81;4991699;28;19921;-58
2023/01/10 06:10:11;;;;;;;;;;;;;;;3.78;100.00;100379.94;4984261;28;19917;-57
2023/01/10 06:12:38;;;;;;;;;;;;;;;3.77;100.00;100385.94;5021557;28;19972;-57
2023/01/10 06:15:03;;;;;;;;;;;;;;;3.71;100.00;100384.34;4992148;28;19975;-57
2023/01/10 06:17:29;;;;;;;;;;;;;;;3.74;100.00;100388.53;4994069;28;19957;-57
2023/01/10 06:19:54;;;;;;;;;;;;;;;3.69;100.00;100390.34;4996432;28;19925;-57
2023/01/10 06:22:19;;;;;;;;;;;;;;;3.59;100.00;100394.78;5017474;28;19927;-55
2023/01/10 06:24:44;;;;;;;;;;;;;;;3.52;100.00;100389.00;4995910;28;19917;-55
2023/01/10 06:27:09;;;;;;;;;;;;;;;3.53;100.00;100392.38;5002991;28;19928;-55
2023/01/10 06:29:35;;;;;;;;;;;;;;;3.53;100.00;100398.28;5001769;28;19918;-56
2023/01/10 06:32:00;;;;;;;;;;;;;;;3.43;100.00;100395.97;5011202;28;19970;-58
2023/01/10 06:34:25;;;;;;;;;;;;;;;3.36;100.00;100413.03;5003042;28;20378;-55
2023/01/10 06:36:50;;;;;;;;;;;;;;;3.22;100.00;100416.72;5006435;28;19922;-56
2023/01/10 06:39:15;;;;;;;;;;;;;;;3.21;100.00;100424.34;5014216;28;19944;-56
2023/01/10 06:41:40;;;;;;;;;;;;;;;3.16;100.00;100429.53;5024691;28;20003;-56
2023/01/10 06:44:06;;;;;;;;;;;;;;;3.19;100.00;100436.28;5016807;28;19925;-57
2023/01/10 06:46:31;;;;;;;;;;;;;;;3.12;100.00;100435.53;5011262;28;19921;-55
2023/01/10 06:48:56;;;;;;;;;;;;;;;3.13;100.00;100428.75;5013915;28;19932;-56
2023/01/10 06:51:21;;;;;;;;;;;;;;;3.15;100.00;100425.31;5017955;28;19983;-55
2023/01/10 06:53:46;;;;;;;;;;;;;;;3.07;100.00;100417.81;5018884;28;19922;-58
2023/01/10 06:56:12;;;;;;;;;;;;;;;3.03;100.00;100418.75;5010211;28;20020;-56
2023/01/10 06:58:37;;;;;;;;;;;;;;;3.01;100.00;100419.66;5012567;28;19921;-56
2023/01/10 07:01:04;;;;;;;;;;;;;;;3.01;100.00;100440.81;5000477;28;20028;-59
2023/01/10 07:03:29;;;;;;;;;;;;;;;2.95;100.00;100452.78;5003339;28;19932;-59
2023/01/10 07:05:55;;;;;;;;;;;;;;;2.92;100.00;100465.56;5007406;28;19917;-55
2023/01/10 07:08:20;;;;;;;;;;;;;;;2.87;100.00;100466.47;5010523;28;19976;-55
2023/01/10 07:10:45;;;;;;;;;;;;;;;2.90;100.00;100466.44;5009224;28;19921;-59
2023/01/10 07:13:10;;;;;;;;;;;;;;;2.90;100.00;100468.97;5028711;28;19988;-59
2023/01/10 07:15:35;;;;;;;;;;;;;;;2.89;100.00;100479.13;5005245;28;20034;-58
2023/01/10 07:18:00;;;;;;;;;;;;;;;2.90;100.00;100476.59;5007471;28;20027;-58
2023/01/10 07:20:26;;;;;;;;;;;;;;;2.88;100.00;100478.31;5003668;28;19963;-59
2023/01/10 07:22:52;;;;;;;;;;;;;;;2.88;100.00;100480.84;5037647;28;19921;-58
2023/01/10 07:25:17;;;;;;;;;;;;;;;2.84;100.00;100479.22;5011037;28;20416;-59
2023/01/10 07:27:42;;;;;;;;;;;;;;;2.83;100.00;100474.16;5008064;28;19921;-58
2023/01/10 07:30:07;;;;;;;;;;;;;;;2.81;100.00;100479.25;4996489;28;19972;-58
2023/01/10 07:32:33;;;;;;;;;;;;;;;2.86;100.00;100481.75;5042745;28;20032;-59
2023/01/10 07:34:58;;;;;;;;;;;;;;;2.94;100.00;100492.63;5000204;28;19922;-58
2023/01/10 07:37:23;;;;;;;;;;;;;;;2.97;100.00;100499.34;4992882;28;19924;-57
2023/01/10 07:39:48;;;;;;;;;;;;;;;2.98;100.00;100499.31;4995876;28;20287;-58
2023/01/10 07:42:14;;;;;;;;;;;;;;;3.02;100.00;100502.66;5019732;28;20409;-58
2023/01/10 07:44:39;;;;;;;;;;;;;;;3.03;100.00;100506.88;5002094;28;19933;-58
2023/01/10 07:47:04;;;;;;;;;;;;;;;3.11;100.00;100517.75;5010944;28;19959;-58
2023/01/10 07:49:29;;;;;;;;;;;;;;;3.14;100.00;100527.00;5010478;28;19921;-58
2023/01/10 07:51:54;;;;;;;;;;;;;;;3.25;100.00;100531.91;5023726;28;20016;-57
2023/01/10 07:54:20;;;;;;;;;;;;;;;3.26;100.00;100546.31;5002214;28;19964;-58
2023/01/10 07:56:46;;;;;;;;;;;;;;;3.31;100.00;100552.16;4998853;28;19918;-57
2023/01/10 07:59:11;;;;;;;;;;;;;;;3.39;100.00;100557.97;4996921;28;20020;-59
2023/01/10 08:01:36;;;;;;;;;;;;;;;3.49;100.00;100558.63;4986298;28;20353;-58
2023/01/10 08:04:02;;;;;;;;;;;;;;;3.60;100.00;100550.78;4980825;28;19922;-58
2023/01/10 08:06:27;;;;;;;;;;;;;;;3.76;100.00;100547.13;4973954;28;19918;-57
2023/01/10 08:08:52;;;;;;;;;;;;;;;3.87;100.00;100559.63;4974609;28;19922;-58
2023/01/10 08:11:17;;;;;;;;;;;;;;;4.04;100.00;100566.91;4984202;28;19921;-58
2023/01/10 08:13:42;;;;;;;;;;;;;;;4.16;100.00;100568.41;4986331;28;19922;-58
2023/01/10 08:16:08;;;;;;;;;;;;;;;4.60;100.00;100566.63;4980676;28;19925;-57
2023/01/10 08:18:33;;;;;;;;;;;;;;;4.77;100.00;100561.13;4988099;28;19981;-57
2023/01/10 08:20:59;;;;;;;;;;;;;;;4.93;100.00;100563.31;4986383;28;19921;-58
2023/01/10 08:23:24;;;;;;;;;;;;;;;5.03;100.00;100559.66;5023252;28;19922;-57
2023/01/10 08:25:50;;;;;;;;;;;;;;;5.02;100.00;100552.88;5005782;28;19924;-61
2023/01/10 08:28:15;;;;;;;;;;;;;;;5.04;100.00;100563.06;5008911;28;19957;-57
2023/01/10 08:30:41;;;;;;;;;;;;;;;5.17;100.00;100562.72;5008071;28;20349;-58
2023/01/10 08:33:07;;;;;;;;;;;;;;;5.33;100.00;100568.28;5029466;28;20022;-58
2023/01/10 08:35:40;;;;;;;;;;;;;;;5.44;100.00;100573.09;4997861;28;20421;-58
2023/01/10 08:38:06;;;;;;;;;;;;;;;5.42;100.00;100577.41;5034604;28;19922;-58
2023/01/10 08:40:31;;;;;;;;;;;;;;;5.42;100.00;100585.06;5002633;28;19932;-58
2023/01/10 08:42:57;;;;;;;;;;;;;;;5.52;100.00;100588.22;5026647;28;19969;-60
2023/01/10 08:45:23;;;;;;;;;;;;;;;5.61;100.00;100592.25;5006221;28;19918;-58
2023/01/10 08:47:48;;;;;;;;;;;;;;;5.63;100.00;100588.78;5001655;28;20001;-59
2023/01/10 08:50:13;;;;;;;;;;;;;;;5.67;100.00;100589.53;4996655;28;19921;-55
2023/01/10 08:52:38;;;;;;;;;;;;;;;5.67;100.00;100587.00;5017583;28;19960;-56
2023/01/10 08:55:04;;;;;;;;;;;;;;;5.65;100.00;100588.75;5007539;28;20012;-56
2023/01/10 08:57:31;;;;;;;;;;;;;;;5.75;100.00;100590.16;5000231;28;19925;-55
2023/01/10 08:59:56;;;;;;;;;;;;;;;5.61;100.00;100599.91;5002259;28;19921;-57
2023/01/10 09:02:21;;;;;;;;;;;;;;;5.72;100.00;100597.91;5017526;28;19943;-57
2023/01/10 09:04:46;;;;;;;;;;;;;;;5.80;100.00;100603.66;4993081;28;20011;-57
2023/01/10 09:07:12;;;;;;;;;;;;;;;5.87;100.00;100599.22;4992305;28;19917;-56
2023/01/10 09:09:37;;;;;;;;;;;;;;;5.89;100.00;100599.16;4996383;28;20395;-57
2023/01/10 09:12:53;;;;;;;;;;;;;;;6.09;100.00;100602.06;5032356;28;19932;-57
2023/01/10 09:14:48;;;;;;;;;;;;;;;6.30;100.00;100604.88;5001152;28;20004;-57
2023/01/10 09:17:13;;;;;;;;;;;;;;;6.26;100.00;100605.84;5007696;28;20004;-57
2023/01/10 09:19:38;;;;;;;;;;;;;;;6.45;100.00;100608.72;5010017;28;20029;-57
2023/01/10 09:22:03;;;;;;;;;;;;;;;6.75;100.00;100614.63;5014202;28;19964;-56
2023/01/10 09:24:29;;;;;;;;;;;;;;;6.75;100.00;100612.06;4993410;28;19918;-56
2023/01/10 09:26:54;;;;;;;;;;;;;;;6.99;100.00;100614.75;4993437;28;19918;-56
2023/01/10 09:29:19;;;;;;;;;;;;;;;8.64;100.00;100621.06;4993339;28;20411;-57
2023/01/10 09:31:44;;;;;;;;;;;;;;;10.33;100.00;100608.94;4993589;28;19933;-57
2023/01/10 09:34:09;;;;;;;;;;;;;;;12.09;94.99;100608.19;5006408;28;19964;-57
2023/01/10 09:36:34;;;;;;;;;;;;;;;13.27;78.66;100609.47;5007559;28;19918;-57
2023/01/10 09:39:00;;;;;;;;;;;;;;;13.98;72.42;100622.59;4999333;28;19925;-57
2023/01/10 09:41:50;;;;;;;;;;;;;;;14.20;65.21;100617.78;4995575;28;19929;-59
2023/01/10 09:44:34;;;;;;;;;;;;;;;13.45;66.43;100628.28;4991649;28;20384;-62
2023/01/10 09:47:14;;;;;;;;;;;;;;;11.58;83.19;100633.09;4993233;28;19924;-58
2023/01/10 09:49:46;;;;;;;;;;;;;;;11.44;87.67;100632.03;4992428;28;19921;-58
2023/01/10 09:52:31;;;;;;;;;;;;;;;12.31;81.56;100640.56;4997504;28;19925;-60
2023/01/10 09:54:59;;;;;;;;;;;;;;;12.90;78.10;100640.00;4990691;28;20076;-57
2023/01/10 09:57:24;;;;;;;;;;;;;;;12.91;73.67;100634.72;4992768;28;20014;-56
2023/01/10 09:59:52;;;;;;;;;;;;;;;11.98;79.16;100641.41;4996913;28;20368;-56
2023/01/10 10:02:35;;;;;;;;;;;;;;;11.46;85.65;100645.69;5026581;28;20422;-56
2023/01/10 10:05:07;;;;;;;;;;;;;;;10.62;92.37;100643.66;5006712;28;20024;-56
2023/01/10 10:07:32;;;;;;;;;;;;;;;9.87;98.53;100646.97;5004938;28;20333;-56
2023/01/10 10:09:57;;;;;;;;;;;;;;;9.64;100.00;100659.06;5010050;28;19921;-56
2023/01/10 10:12:38;;;;;;;;;;;;;;;9.69;100.00;100657.97;5017267;28;19965;-55
2023/01/10 10:15:12;;;;;;;;;;;;;;;8.81;100.00;100655.50;4999768;28;20120;-56
2023/01/10 10:17:44;;;;;;;;;;;;;;;8.65;100.00;100652.69;5010164;28;20377;-56
2023/01/10 10:20:13;;;;;;;;;;;;;;;8.31;100.00;100651.31;4998620;28;19930;-56
2023/01/10 10:22:49;;;;;;;;;;;;;;;8.00;100.00;100657.53;5019175;28;20020;-55
2023/01/10 10:25:25;;;;;;;;;;;;;;;8.02;100.00;100664.28;5009300;28;19921;-55
2023/01/10 10:27:56;;;;;;;;;;;;;;;8.11;100.00;100657.97;5006840;28;19917;-56
2023/01/10 10:30:41;;;;;;;;;;;;;;;7.88;100.00;100656.25;4994961;28;19953;-56
2023/01/10 10:33:15;;;;;;;;;;;;;;;7.63;100.00;100658.78;5004014;28;19922;-56
2023/01/10 10:35:44;;;;;;;;;;;;;;;7.40;100.00;100662.94;5002358;28;19929;-57
2023/01/10 10:38:21;;;;;;;;;;;;;;;7.35;100.00;100665.63;5005783;28;19921;-58
2023/01/10 10:40:47;;;;;;;;;;;;;;;7.47;100.00;100655.88;5003816;28;19965;-58
2023/01/10 10:43:17;;;;;;;;;;;;;;;7.13;100.00;100657.81;5008594;28;20377;-56
2023/01/10 10:45:59;;;;;;;;;;;;;;;7.05;100.00;100655.50;4996031;28;20019;-56
2023/01/10 10:48:32;;;;;;;;;;;;;;;7.07;100.00;100648.63;4997760;28;19926;-56
2023/01/10 10:51:14;;;;;;;;;;;;;;;7.00;100.00;100643.75;4996927;28;19925;-56
2023/01/10 10:53:40;;;;;;;;;;;;;;;6.95;100.00;100644.69;5004855;28;19921;-56
2023/01/10 10:56:06;;;;;;;;;;;;;;;7.06;100.00;100644.38;4992501;28;20416;-56
2023/01/10 10:58:31;;;;;;;;;;;;;;;7.17;100.00;100632.97;4992105;28;20696;-56
2023/01/10 11:00:58;;;;;;;;;;;;;;;7.19;100.00;100636.31;4996380;28;19955;-56
2023/01/10 11:03:35;;;;;;;;;;;;;;;7.17;100.00;100630.41;5008718;28;20361;-56
2023/01/10 11:06:01;;;;;;;;;;;;;;;7.07;100.00;100628.16;4994967;28;20063;-55
2023/01/10 11:08:28;;;;;;;;;;;;;;;7.10;100.00;100624.66;4996027;28;20017;-58
2023/01/10 11:10:58;;;;;;;;;;;;;;;7.17;100.00;100621.03;4999259;28;19917;-56
2023/01/10 11:13:26;;;;;;;;;;;;;;;7.30;100.00;100628.31;5012456;28;20069;-57
2023/01/10 11:15:51;;;;;;;;;;;;;;;7.31;100.00;100628.25;5026529;28;19917;-57
2023/01/10 11:18:19;;;;;;;;;;;;;;;7.29;100.00;100626.63;4996046;28;19922;-57
2023/01/10 11:20:48;;;;;;;;;;;;;;;7.23;100.00;100631.06;4993477;28;19924;-57
2023/01/10 11:23:26;;;;;;;;;;;;;;;7.40;100.00;100637.34;5015197;28;19925;-57
2023/01/10 11:25:52;;;;;;;;;;;;;;;7.40;100.00;100638.16;4994809;28;20301;-57
2023/01/10 11:28:20;;;;;;;;;;;;;;;7.35;100.00;100642.59;4996141;28;20027;-57
2023/01/10 11:30:47;;;;;;;;;;;;;;;7.48;100.00;100637.09;4993123;28;19980;-56
2023/01/10 11:33:25;;;;;;;;;;;;;;;7.62;100.00;100639.22;5015811;28;19921;-60
2023/01/10 11:36:00;;;;;;;;;;;;;;;7.64;100.00;100625.47;4994994;28;19945;-60
2023/01/10 11:38:29;;;;;;;;;;;;;;;7.69;100.00;100623.59;5026319;28;19925;-56
2023/01/10 11:40:56;;;;;;;;;;;;;;;7.70;100.00;100626.97;4994994;28;19921;-57
2023/01/10 11:43:23;;;;;;;;;;;;;;;7.67;100.00;100627.09;5012862;28;19980;-58
2023/01/10 11:45:53;;;;;;;;;;;;;;;7.69;100.00;100615.91;4995136;28;19924;-62
2023/01/10 11:48:23;;;;;;;;;;;;;;;7.84;100.00;100623.91;4995164;28;19957;-57
2023/01/10 11:50:50;;;;;;;;;;;;;;;7.73;100.00;100621.75;5000535;28;20470;-56
2023/01/10 11:53:34;;;;;;;;;;;;;;;7.75;100.00;100617.41;5018184;28;19924;-58
2023/01/10 11:56:00;;;;;;;;;;;;;;;7.76;100.00;100613.94;5006134;28;19997;-59
2023/01/10 11:58:29;;;;;;;;;;;;;;;7.82;100.00;100616.31;5000900;28;19933;-56
2023/01/10 12:00:54;;;;;;;;;;;;;;;7.81;100.00;100609.50;4990505;28;19922;-58
2023/01/10 12:03:28;;;;;;;;;;;;;;;7.76;100.00;100613.94;5002963;28;20453;-56
2023/01/10 12:06:04;;;;;;;;;;;;;;;7.97;100.00;100601.28;4993971;28;20022;-56
2023/01/10 12:08:37;;;;;;;;;;;;;;;8.16;100.00;100588.63;4993762;28;20301;-56
2023/01/10 12:11:04;;;;;;;;;;;;;;;8.39;100.00;100598.88;5001135;28;19927;-56
2023/01/10 12:13:41;;;;;;;;;;;;;;;8.29;100.00;100589.88;5010439;28;19972;-57
2023/01/10 12:16:13;;;;;;;;;;;;;;;8.05;100.00;100597.56;5009694;28;20032;-58
2023/01/10 12:18:38;;;;;;;;;;;;;;;7.91;100.00;100602.34;5010083;28;20373;-57
2023/01/10 12:21:04;;;;;;;;;;;;;;;7.84;100.00;100600.88;5012897;28;19958;-57
2023/01/10 12:23:30;;;;;;;;;;;;;;;7.80;100.00;100600.16;5027629;28;19926;-57
2023/01/10 12:25:58;;;;;;;;;;;;;;;7.94;100.00;100591.13;5006710;28;19961;-56
2023/01/10 12:28:26;;;;;;;;;;;;;;;7.86;100.00;100582.03;5003086;28;20277;-57
2023/01/10 12:30:54;;;;;;;;;;;;;;;7.99;100.00;100590.09;5008437;28;20274;-58
2023/01/10 12:33:22;;;;;;;;;;;;;;;7.86;100.00;100591.41;5022842;28;19918;-56
2023/01/10 12:35:59;;;;;;;;;;;;;;;7.75;100.00;100592.63;5007602;28;20388;-56
2023/01/10 12:44:09;;;;;;;;;;;;;;;7.38;100.00;100593.91;5012581;28;19948;-57
2023/01/10 12:44:10;;;;;;;;;;;;;;;7.47;100.00;100587.63;5016231;28;19921;-57
2023/01/10 12:46:43;;;;;;;;;;;;;;;7.58;100.00;100592.38;5006710;28;20393;-57
2023/01/10 12:49:21;;;;;;;;;;;;;;;7.58;100.00;100593.22;5009662;28;20361;-58
2023/01/10 12:51:48;;;;;;;;;;;;;;;7.41;100.00;100593.78;5029384;28;19929;-58
2023/01/10 12:54:25;;;;;;;;;;;;;;;7.32;100.00;100614.56;5008880;28;19922;-58
2023/01/10 12:56:51;;;;;;;;;;;;;;;7.45;100.00;100598.81;5006083;28;19922;-57